Time;durP1;ratioP1;P1;durP2;ratioP2;P2;SDS_P1;SDS_P2;PMS_P1;PMS_P2;Temp;Humidity;BMP_temperature;BMP_pressure;BME280_temperature;BME280_humidity;BME280_pressure;Samples;Min_cycle;Max_cycle;Signal;HPM_P1;HPM_P2
2022/11/11 00:00:06;;;;;;;;;;;18.80;99.90;;;;;;5041375;28;19929;-63
2022/11/11 00:02:53;;;;;;;;;;;18.90;99.90;;;;;;5035126;28;19925;-62
2022/11/11 00:05:39;;;;;;;;;;;18.80;99.90;;;;;;5033398;28;19925;-63
2022/11/11 00:08:24;;;;;;;;;;;18.80;99.90;;;;;;5036551;28;19925;-61
2022/11/11 00:11:11;;;;;;;;;;;18.80;99.90;;;;;;5024380;28;19921;-62
2022/11/11 00:13:56;;;;;;;;;;;18.80;99.90;;;;;;5033610;28;20315;-62
2022/11/11 00:25:56;;;;;;;;;;;18.70;99.90;;;;;;5040206;28;19921;-63
2022/11/11 00:29:01;;;;;;;;;;;18.70;99.90;;;;;;5015646;28;20428;-63
2022/11/11 00:38:05;;;;;;;;;;;18.70;99.90;;;;;;5031350;28;19920;-63
2022/11/11 00:40:51;;;;;;;;;;;18.60;99.90;;;;;;5032590;28;20358;-63
2022/11/11 00:43:36;;;;;;;;;;;18.60;99.90;;;;;;5031872;28;19925;-62
2022/11/11 00:52:31;;;;;;;;;;;18.60;99.90;;;;;;5032682;28;19928;-63
2022/11/11 00:55:16;;;;;;;;;;;18.60;99.90;;;;;;5033687;28;19921;-62
2022/11/11 00:58:02;;;;;;;;;;;18.60;99.90;;;;;;5035095;28;19925;-63
2022/11/11 01:00:49;;;;;;;;;;;18.60;99.90;;;;;;5038769;28;20271;-63
2022/11/11 01:03:34;;;;;;;;;;;18.60;99.90;;;;;;5021880;28;20390;-62
2022/11/11 01:06:20;;;;;;;;;;;18.50;99.90;;;;;;5036183;28;20315;-63
2022/11/11 01:09:06;;;;;;;;;;;18.50;99.90;;;;;;5022050;28;19928;-63
2022/11/11 01:11:51;;;;;;;;;;;18.50;99.90;;;;;;5015013;28;19921;-63
2022/11/11 01:14:37;;;;;;;;;;;18.50;99.90;;;;;;5039215;28;19924;-62
2022/11/11 01:17:22;;;;;;;;;;;18.50;99.90;;;;;;5041568;28;20128;-61
2022/11/11 01:20:08;;;;;;;;;;;18.50;99.90;;;;;;5037919;28;19925;-62
2022/11/11 01:22:54;;;;;;;;;;;18.50;99.90;;;;;;5016210;28;19928;-63
2022/11/11 01:25:40;;;;;;;;;;;18.50;99.90;;;;;;5023835;28;19921;-63
2022/11/11 01:28:26;;;;;;;;;;;18.50;99.90;;;;;;5034890;28;19920;-63
2022/11/11 01:31:14;;;;;;;;;;;18.40;99.90;;;;;;5034610;28;20249;-63
2022/11/11 01:33:59;;;;;;;;;;;18.50;99.90;;;;;;5028927;28;19925;-59
2022/11/11 01:36:45;;;;;;;;;;;18.50;99.90;;;;;;5013691;28;19929;-60
2022/11/11 01:39:30;;;;;;;;;;;18.50;99.90;;;;;;5035481;28;19921;-62
2022/11/11 01:42:16;;;;;;;;;;;18.50;99.90;;;;;;5034234;28;19928;-61
2022/11/11 01:45:22;;;;;;;;;;;18.40;99.90;;;;;;5035377;28;20220;-63
2022/11/11 01:51:29;;;;;;;;;;;18.40;99.90;;;;;;5039141;28;19929;-62
2022/11/11 01:54:20;;;;;;;;;;;18.40;99.90;;;;;;5031141;28;20047;-62
2022/11/11 01:57:09;;;;;;;;;;;18.40;99.90;;;;;;5035815;28;19921;-63
2022/11/11 02:00:01;;;;;;;;;;;18.40;99.90;;;;;;5040493;28;19928;-62
2022/11/11 02:02:49;;;;;;;;;;;18.40;99.90;;;;;;5039253;28;20293;-62
2022/11/11 02:05:42;;;;;;;;;;;18.40;99.90;;;;;;5036755;28;19925;-61
2022/11/11 02:08:33;;;;;;;;;;;18.40;99.90;;;;;;5037852;28;19929;-62
2022/11/11 02:14:34;;;;;;;;;;;18.30;99.90;;;;;;5039423;28;19925;-62
2022/11/11 02:14:35;;;;;;;;;;;18.30;99.90;;;;;;5034476;28;19921;-64
2022/11/11 02:17:22;;;;;;;;;;;18.30;99.90;;;;;;5039038;28;19924;-63
2022/11/11 02:20:09;;;;;;;;;;;18.30;99.90;;;;;;5045894;28;20384;-61
2022/11/11 02:22:55;;;;;;;;;;;18.30;99.90;;;;;;5034344;28;19936;-62
2022/11/11 02:25:44;;;;;;;;;;;18.30;99.90;;;;;;5036932;28;20436;-62
2022/11/11 02:28:31;;;;;;;;;;;18.30;99.90;;;;;;5032848;28;19955;-62
2022/11/11 02:31:17;;;;;;;;;;;18.30;99.90;;;;;;5037051;28;19920;-62
2022/11/11 02:34:03;;;;;;;;;;;18.30;99.90;;;;;;5032001;28;19936;-61
2022/11/11 02:36:48;;;;;;;;;;;18.30;99.90;;;;;;5023449;28;20316;-63
2022/11/11 02:39:36;;;;;;;;;;;18.20;99.90;;;;;;5041213;28;19925;-60
2022/11/11 02:42:42;;;;;;;;;;;18.20;99.90;;;;;;5036889;28;19925;-63
2022/11/11 02:45:28;;;;;;;;;;;18.20;99.90;;;;;;5036857;28;20456;-62
2022/11/11 02:48:14;;;;;;;;;;;18.20;99.90;;;;;;5036981;28;19925;-62
2022/11/11 02:51:00;;;;;;;;;;;18.20;99.90;;;;;;5046871;28;19925;-63
2022/11/11 02:53:46;;;;;;;;;;;18.20;99.90;;;;;;5044689;28;19928;-62
2022/11/11 02:59:39;;;;;;;;;;;18.20;99.90;;;;;;5047843;28;19954;-64
2022/11/11 03:02:26;;;;;;;;;;;18.20;99.90;;;;;;5051649;28;19921;-61
2022/11/11 03:05:12;;;;;;;;;;;18.10;99.90;;;;;;5054082;28;19935;-62
2022/11/11 03:07:57;;;;;;;;;;;18.10;99.90;;;;;;5046727;28;19928;-62
2022/11/11 03:10:43;;;;;;;;;;;18.10;99.90;;;;;;5042443;28;19925;-63
2022/11/11 03:13:29;;;;;;;;;;;18.10;99.90;;;;;;5038343;28;19925;-62
2022/11/11 03:19:20;;;;;;;;;;;18.10;99.90;;;;;;5052489;28;20372;-62
2022/11/11 03:22:06;;;;;;;;;;;18.10;99.90;;;;;;5040420;28;19929;-62
2022/11/11 03:28:17;;;;;;;;;;;18.10;99.90;;;;;;5039603;28;19929;-63
2022/11/11 03:31:02;;;;;;;;;;;18.10;99.90;;;;;;5040329;28;19925;-63
2022/11/11 03:33:49;;;;;;;;;;;18.10;99.90;;;;;;5037117;28;19929;-62
2022/11/11 03:39:39;;;;;;;;;;;18.10;99.90;;;;;;5037436;28;20380;-62
2022/11/11 03:42:24;;;;;;;;;;;18.10;99.90;;;;;;5039775;28;19921;-63
2022/11/11 03:45:10;;;;;;;;;;;18.10;99.90;;;;;;5036870;28;19936;-62
2022/11/11 03:47:55;;;;;;;;;;;18.10;99.90;;;;;;5043584;28;19920;-62
2022/11/11 03:50:41;;;;;;;;;;;18.00;99.90;;;;;;5040874;28;20385;-63
2022/11/11 03:53:26;;;;;;;;;;;18.00;99.90;;;;;;5053615;28;19929;-63
2022/11/11 03:56:12;;;;;;;;;;;18.00;99.90;;;;;;5042594;28;19921;-63
2022/11/11 03:58:58;;;;;;;;;;;18.00;99.90;;;;;;5043284;28;19925;-63
2022/11/11 04:10:58;;;;;;;;;;;18.00;99.90;;;;;;5041079;28;19932;-64
2022/11/11 04:16:49;;;;;;;;;;;18.00;99.90;;;;;;5037387;28;20312;-63
2022/11/11 04:22:43;;;;;;;;;;;18.00;99.90;;;;;;5036127;28;19933;-63
2022/11/11 04:34:56;;;;;;;;;;;17.90;99.90;;;;;;5037069;28;19921;-62
2022/11/11 04:37:48;;;;;;;;;;;17.90;99.90;;;;;;5031807;28;19925;-62
2022/11/11 04:46:43;;;;;;;;;;;17.80;99.90;;;;;;5031297;28;19925;-62
2022/11/11 04:49:28;;;;;;;;;;;17.90;99.90;;;;;;5036670;28;19925;-63
2022/11/11 04:52:26;;;;;;;;;;;17.90;99.90;;;;;;5035109;28;19924;-63
2022/11/11 04:58:17;;;;;;;;;;;18.10;99.90;;;;;;5037564;28;19920;-61
2022/11/11 05:01:02;;;;;;;;;;;18.20;99.90;;;;;;5034930;28;19921;-63
2022/11/11 05:03:48;;;;;;;;;;;18.20;99.90;;;;;;5034453;28;19924;-62
2022/11/11 05:09:43;;;;;;;;;;;18.30;99.90;;;;;;5038702;28;19925;-61
2022/11/11 05:12:30;;;;;;;;;;;18.40;99.90;;;;;;5034589;22;20609;31
2022/11/11 05:21:26;;;;;;;;;;;18.50;99.90;;;;;;5033044;28;20388;-58
2022/11/11 05:27:17;;;;;;;;;;;18.40;99.90;;;;;;5038623;28;19928;-61
2022/11/11 05:30:03;;;;;;;;;;;18.50;99.90;;;;;;5043780;28;19921;-59
2022/11/11 05:32:48;;;;;;;;;;;18.50;99.90;;;;;;5037749;28;20495;-58
2022/11/11 05:35:35;;;;;;;;;;;18.40;99.90;;;;;;5040088;28;19925;-60
2022/11/11 05:38:21;;;;;;;;;;;18.50;99.90;;;;;;5039904;28;19932;-57
2022/11/11 05:41:07;;;;;;;;;;;18.40;99.90;;;;;;5043251;28;19933;-57
2022/11/11 05:43:53;;;;;;;;;;;18.50;99.90;;;;;;5017917;28;19925;-59
2022/11/11 05:46:38;;;;;;;;;;;18.40;99.90;;;;;;5036985;28;20528;-59
2022/11/11 05:49:24;;;;;;;;;;;18.50;99.90;;;;;;5006283;28;19925;-58
2022/11/11 05:52:11;;;;;;;;;;;18.50;99.90;;;;;;5016847;28;20304;-55
2022/11/11 05:54:56;;;;;;;;;;;18.40;99.90;;;;;;5034781;28;19921;-58
2022/11/11 05:57:42;;;;;;;;;;;18.40;99.90;;;;;;5031411;28;19925;-56
2022/11/11 06:00:28;;;;;;;;;;;18.40;99.90;;;;;;5034980;28;19929;-59
2022/11/11 06:03:13;;;;;;;;;;;18.40;99.90;;;;;;5029602;28;19932;-62
2022/11/11 06:05:59;;;;;;;;;;;18.40;99.90;;;;;;5029686;28;19925;-56
2022/11/11 06:08:44;;;;;;;;;;;18.50;99.90;;;;;;5035650;28;19928;-61
2022/11/11 06:11:30;;;;;;;;;;;18.60;99.90;;;;;;5034685;28;19921;-60
2022/11/11 06:14:18;;;;;;;;;;;18.80;99.90;;;;;;5028050;28;19925;-59
2022/11/11 06:17:03;;;;;;;;;;;19.00;99.90;;;;;;5026999;28;19932;-58
2022/11/11 06:19:49;;;;;;;;;;;19.20;99.90;;;;;;5034626;28;19921;-58
2022/11/11 06:28:52;;;;;;;;;;;19.80;99.90;;;;;;5035107;28;19924;-60
2022/11/11 06:31:38;;;;;;;;;;;19.80;99.90;;;;;;5033241;28;19925;-58
2022/11/11 06:34:24;;;;;;;;;;;19.90;99.90;;;;;;5032014;28;19925;-54
2022/11/11 06:37:09;;;;;;;;;;;20.00;99.90;;;;;;5038472;28;19925;-57
2022/11/11 06:39:55;;;;;;;;;;;20.00;99.90;;;;;;5041027;28;19943;-60
2022/11/11 06:42:40;;;;;;;;;;;20.00;99.90;;;;;;5029442;28;20320;-59
2022/11/11 06:45:27;;;;;;;;;;;20.00;99.90;;;;;;5036932;28;20393;-55
2022/11/11 06:48:13;;;;;;;;;;;20.00;99.90;;;;;;5037406;28;20671;-61
2022/11/11 06:51:03;;;;;;;;;;;19.90;99.90;;;;;;5041027;28;19924;-59
2022/11/11 06:53:48;;;;;;;;;;;19.90;99.90;;;;;;5032848;28;19925;-64
2022/11/11 06:56:34;;;;;;;;;;;20.00;99.90;;;;;;5033940;28;19945;-58
2022/11/11 06:59:19;;;;;;;;;;;19.90;99.90;;;;;;5034181;28;19921;-61
2022/11/11 07:02:05;;;;;;;;;;;19.90;99.90;;;;;;5038328;28;19921;-58
2022/11/11 07:04:50;;;;;;;;;;;19.80;99.90;;;;;;5039406;28;19925;-60
2022/11/11 07:07:36;;;;;;;;;;;19.80;99.90;;;;;;5037548;28;19921;-59
2022/11/11 07:10:22;;;;;;;;;;;19.80;99.90;;;;;;5039002;28;20392;-58
2022/11/11 07:13:07;;;;;;;;;;;19.70;99.90;;;;;;5033028;28;19925;-60
2022/11/11 07:15:53;;;;;;;;;;;19.70;99.90;;;;;;5037466;28;19924;-61
2022/11/11 07:18:39;;;;;;;;;;;19.70;99.90;;;;;;5041842;28;19925;-59
2022/11/11 07:21:24;;;;;;;;;;;19.70;99.90;;;;;;5036127;28;19925;-55
2022/11/11 07:24:10;;;;;;;;;;;19.70;99.90;;;;;;5027370;28;20381;-58
2022/11/11 07:26:55;;;;;;;;;;;19.70;99.90;;;;;;5032047;28;20373;-60
2022/11/11 07:29:41;;;;;;;;;;;19.60;99.90;;;;;;5035183;28;19925;-60
2022/11/11 07:32:26;;;;;;;;;;;19.60;99.90;;;;;;5038015;28;20419;-59
2022/11/11 07:35:15;;;;;;;;;;;19.50;99.90;;;;;;5036063;28;20538;-59
2022/11/11 07:38:00;;;;;;;;;;;19.50;99.90;;;;;;5038097;28;19929;-60
2022/11/11 07:40:46;;;;;;;;;;;19.50;99.90;;;;;;5034631;28;19921;-59
2022/11/11 07:43:32;;;;;;;;;;;19.40;99.90;;;;;;5032780;28;19921;-63
2022/11/11 07:46:17;;;;;;;;;;;19.40;99.90;;;;;;5044441;28;20389;-63
2022/11/11 07:49:03;;;;;;;;;;;19.40;99.90;;;;;;5039031;28;19924;-62
2022/11/11 07:51:48;;;;;;;;;;;19.40;99.90;;;;;;5031070;28;19925;-62
2022/11/11 07:54:34;;;;;;;;;;;19.40;99.90;;;;;;5030002;28;19924;-61
2022/11/11 07:57:20;;;;;;;;;;;19.30;99.90;;;;;;5037651;28;19921;-59
2022/11/11 08:00:06;;;;;;;;;;;19.30;99.90;;;;;;5040921;28;19921;-60
2022/11/11 08:02:51;;;;;;;;;;;19.30;99.90;;;;;;5039993;28;20127;-62
2022/11/11 08:05:43;;;;;;;;;;;19.30;99.90;;;;;;5039874;28;19924;-62
2022/11/11 08:08:28;;;;;;;;;;;19.20;99.90;;;;;;5039745;28;19924;-64
2022/11/11 08:11:15;;;;;;;;;;;19.20;99.90;;;;;;5038387;28;20390;-60
2022/11/11 08:14:00;;;;;;;;;;;19.20;99.90;;;;;;5015436;28;20639;-61
2022/11/11 08:16:46;;;;;;;;;;;19.20;99.90;;;;;;5034924;28;19925;-62
2022/11/11 08:19:31;;;;;;;;;;;19.20;99.90;;;;;;5036398;28;19925;-62
2022/11/11 08:22:17;;;;;;;;;;;19.20;99.90;;;;;;5038695;28;19929;-63
2022/11/11 08:25:03;;;;;;;;;;;19.20;99.90;;;;;;5033632;28;19933;-65
2022/11/11 08:27:57;;;;;;;;;;;19.10;99.90;;;;;;5035153;28;19925;-65
2022/11/11 08:30:43;;;;;;;;;;;19.10;99.90;;;;;;5035303;28;20550;-64
2022/11/11 08:33:28;;;;;;;;;;;19.10;99.90;;;;;;5031065;28;19929;-66
2022/11/11 08:36:20;;;;;;;;;;;19.10;99.90;;;;;;5030514;28;19925;-66
2022/11/11 08:39:06;;;;;;;;;;;19.00;99.90;;;;;;5034693;28;19921;-67
2022/11/11 08:41:52;;;;;;;;;;;18.90;99.90;;;;;;5033925;28;19929;-68
2022/11/11 08:44:37;;;;;;;;;;;18.90;99.90;;;;;;5027117;28;19921;-67
2022/11/11 08:47:23;;;;;;;;;;;18.80;99.90;;;;;;5038966;28;19929;-67
2022/11/11 08:50:09;;;;;;;;;;;18.80;99.90;;;;;;5036750;28;19980;-66
2022/11/11 08:52:55;;;;;;;;;;;18.80;99.90;;;;;;5024528;28;19925;-66
2022/11/11 08:55:41;;;;;;;;;;;18.80;99.90;;;;;;5028952;28;19925;-67
2022/11/11 08:58:26;;;;;;;;;;;18.80;99.90;;;;;;5040132;28;19921;-68
2022/11/11 09:01:12;;;;;;;;;;;18.90;99.90;;;;;;5040094;28;19925;-67
2022/11/11 09:03:58;;;;;;;;;;;18.90;99.90;;;;;;5031601;28;19925;-67
2022/11/11 09:07:05;;;;;;;;;;;18.90;99.90;;;;;;5033696;28;19924;-67
2022/11/11 09:09:50;;;;;;;;;;;19.00;99.90;;;;;;5030608;28;19921;-69
2022/11/11 09:12:36;;;;;;;;;;;19.10;99.90;;;;;;5031962;28;19921;-67
2022/11/11 09:15:21;;;;;;;;;;;19.30;99.90;;;;;;5037974;28;19932;-67
2022/11/11 09:18:09;;;;;;;;;;;19.50;99.90;;;;;;5040005;28;19921;-67
2022/11/11 09:20:56;;;;;;;;;;;19.70;99.90;;;;;;5042852;28;19925;-66
2022/11/11 09:23:42;;;;;;;;;;;19.90;99.90;;;;;;5036289;28;19921;-67
2022/11/11 09:26:28;;;;;;;;;;;20.00;99.90;;;;;;5036218;28;19929;-69
2022/11/11 09:29:13;;;;;;;;;;;20.20;99.90;;;;;;5038284;28;19925;-66
2022/11/11 09:31:59;;;;;;;;;;;20.20;99.90;;;;;;5032406;28;19925;-69
2022/11/11 09:34:44;;;;;;;;;;;20.30;99.90;;;;;;5028879;28;19924;-68
2022/11/11 09:37:30;;;;;;;;;;;20.30;99.90;;;;;;5030307;28;19925;-69
2022/11/11 09:40:18;;;;;;;;;;;20.30;99.90;;;;;;5031295;28;19926;-69
2022/11/11 09:43:09;;;;;;;;;;;20.30;99.90;;;;;;5029070;28;20448;-64
2022/11/11 09:46:00;;;;;;;;;;;20.30;99.90;;;;;;5033581;28;20384;-68
2022/11/11 09:48:53;;;;;;;;;;;20.30;99.90;;;;;;5028507;28;20233;-67
2022/11/11 09:51:41;;;;;;;;;;;20.20;99.90;;;;;;5029503;28;19936;-67
2022/11/11 09:54:40;;;;;;;;;;;20.20;99.90;;;;;;5028901;28;19956;-68
2022/11/11 09:57:32;;;;;;;;;;;20.10;99.90;;;;;;5035701;28;19920;-68
2022/11/11 10:00:20;;;;;;;;;;;20.10;99.90;;;;;;5019786;28;19920;-63
2022/11/11 10:03:13;;;;;;;;;;;20.10;99.90;;;;;;5024233;28;19921;-66
2022/11/11 10:06:08;;;;;;;;;;;20.00;99.90;;;;;;5041917;28;19925;-67
2022/11/11 10:09:05;;;;;;;;;;;20.00;99.90;;;;;;5049611;28;20331;-70
2022/11/11 10:12:00;;;;;;;;;;;20.00;99.90;;;;;;5039106;28;19925;-68
2022/11/11 10:14:49;;;;;;;;;;;19.90;99.90;;;;;;5026161;28;19987;-69
2022/11/11 10:17:45;;;;;;;;;;;19.90;99.90;;;;;;5025845;28;19921;-67
2022/11/11 10:20:37;;;;;;;;;;;19.90;99.90;;;;;;5038653;28;19925;-66
2022/11/11 10:23:31;;;;;;;;;;;19.80;99.90;;;;;;5021521;28;19921;-66
2022/11/11 10:26:28;;;;;;;;;;;19.80;99.90;;;;;;5035372;28;19925;-69
2022/11/11 10:29:16;;;;;;;;;;;19.70;99.90;;;;;;5039297;28;19929;-68
2022/11/11 10:32:08;;;;;;;;;;;19.70;99.90;;;;;;5033430;28;19929;-69
2022/11/11 10:34:58;;;;;;;;;;;19.70;99.90;;;;;;5038795;28;19929;-69
2022/11/11 10:37:44;;;;;;;;;;;19.70;99.90;;;;;;5038986;28;19921;-72
2022/11/11 10:40:39;;;;;;;;;;;19.70;99.90;;;;;;5044929;28;20299;-67
2022/11/11 10:43:26;;;;;;;;;;;19.70;99.90;;;;;;5035838;28;19925;-69
2022/11/11 10:46:21;;;;;;;;;;;19.70;99.90;;;;;;5029354;28;19928;-69
2022/11/11 10:49:15;;;;;;;;;;;19.70;99.90;;;;;;5038265;28;20375;-69
2022/11/11 10:52:05;;;;;;;;;;;19.70;99.90;;;;;;5038685;28;20407;-67
2022/11/11 10:55:01;;;;;;;;;;;19.70;99.90;;;;;;5039353;28;20565;-71
2022/11/11 10:57:58;;;;;;;;;;;19.70;99.90;;;;;;5053838;28;19920;-70
2022/11/11 11:00:44;;;;;;;;;;;19.70;99.90;;;;;;5050024;28;19929;-71
2022/11/11 11:03:41;;;;;;;;;;;19.60;99.90;;;;;;5043176;28;19925;-68
2022/11/11 11:06:29;;;;;;;;;;;19.60;99.90;;;;;;5042324;28;19925;-69
2022/11/11 11:09:29;;;;;;;;;;;19.60;99.90;;;;;;5040207;28;19921;-67
2022/11/11 11:12:34;;;;;;;;;;;19.60;99.90;;;;;;5032865;28;19925;-67
2022/11/11 11:15:21;;;;;;;;;;;19.60;99.90;;;;;;5042844;28;19924;-63
2022/11/11 11:18:09;;;;;;;;;;;19.50;99.90;;;;;;5036286;28;19929;-60
2022/11/11 11:20:54;;;;;;;;;;;19.50;99.90;;;;;;5035110;28;19925;-64
2022/11/11 11:23:41;;;;;;;;;;;19.50;99.90;;;;;;5030155;28;19940;-63
2022/11/11 11:26:41;;;;;;;;;;;19.40;99.90;;;;;;5038025;28;19920;-65
2022/11/11 11:29:37;;;;;;;;;;;19.40;99.90;;;;;;5034689;28;22235;-59
2022/11/11 11:32:31;;;;;;;;;;;19.40;99.90;;;;;;5035128;28;19929;-62
2022/11/11 11:35:31;;;;;;;;;;;19.40;99.90;;;;;;5036251;28;19921;-63
2022/11/11 11:38:17;;;;;;;;;;;19.40;99.90;;;;;;5045534;28;19921;-63
2022/11/11 11:41:03;;;;;;;;;;;19.40;99.90;;;;;;5028865;28;19928;-61
2022/11/11 11:43:49;;;;;;;;;;;19.40;99.90;;;;;;5021918;28;19921;-60
2022/11/11 11:46:41;;;;;;;;;;;19.50;99.90;;;;;;5043612;28;19921;-61
2022/11/11 11:49:38;;;;;;;;;;;19.40;99.90;;;;;;5033223;28;19921;-61
2022/11/11 11:52:43;;;;;;;;;;;19.40;99.90;;;;;;5035666;28;20550;-57
2022/11/11 11:55:31;;;;;;;;;;;19.40;99.90;;;;;;5038381;28;20663;-63
2022/11/11 11:58:16;;;;;;;;;;;19.40;99.90;;;;;;5035416;28;19931;-65
2022/11/11 12:01:03;;;;;;;;;;;19.40;99.90;;;;;;5035341;28;20419;-58
2022/11/11 12:03:49;;;;;;;;;;;19.40;99.90;;;;;;5031868;28;19924;-62
2022/11/11 12:06:44;;;;;;;;;;;19.40;99.90;;;;;;5032390;28;20372;-59
2022/11/11 12:09:38;;;;;;;;;;;19.40;99.90;;;;;;5036730;28;20572;-60
2022/11/11 12:12:23;;;;;;;;;;;19.40;99.90;;;;;;5035575;28;19929;-60
2022/11/11 12:15:21;;;;;;;;;;;19.40;99.90;;;;;;5031748;28;19933;-64
2022/11/11 12:18:25;;;;;;;;;;;19.30;99.90;;;;;;5034015;28;19925;-61
2022/11/11 12:21:13;;;;;;;;;;;19.30;99.90;;;;;;5036387;28;20309;-62
2022/11/11 12:24:13;;;;;;;;;;;19.20;99.90;;;;;;5030030;28;20381;-62
2022/11/11 12:27:17;;;;;;;;;;;19.20;99.90;;;;;;5035187;28;19924;-65
2022/11/11 12:30:07;;;;;;;;;;;19.10;99.90;;;;;;5024860;28;19925;-60
2022/11/11 12:33:05;;;;;;;;;;;19.10;99.90;;;;;;5033659;28;19924;-56
2022/11/11 12:36:06;;;;;;;;;;;19.30;99.90;;;;;;5029676;28;19925;-59
2022/11/11 12:38:55;;;;;;;;;;;19.40;99.90;;;;;;5035312;28;19925;-60
2022/11/11 12:41:51;;;;;;;;;;;19.40;99.90;;;;;;5026091;28;19921;-58
2022/11/11 12:44:45;;;;;;;;;;;19.40;99.90;;;;;;5020339;28;19925;-62
2022/11/11 12:47:45;;;;;;;;;;;19.50;99.90;;;;;;5036646;28;19920;-57
2022/11/11 12:50:37;;;;;;;;;;;19.40;99.90;;;;;;5017901;28;20315;-63
2022/11/11 12:53:35;;;;;;;;;;;19.40;99.90;;;;;;5036285;28;20540;-62
2022/11/11 12:56:21;;;;;;;;;;;19.40;99.90;;;;;;5032038;28;19925;-61
2022/11/11 12:59:09;;;;;;;;;;;19.40;99.90;;;;;;5036997;28;19920;-60
2022/11/11 13:02:08;;;;;;;;;;;19.40;99.90;;;;;;5037740;28;19929;-57
2022/11/11 13:05:06;;;;;;;;;;;19.40;99.90;;;;;;5029597;28;19929;-60
2022/11/11 13:08:01;;;;;;;;;;;19.50;99.90;;;;;;5035158;28;19925;-63
2022/11/11 13:10:55;;;;;;;;;;;19.40;99.90;;;;;;5036387;28;20157;-61
2022/11/11 13:13:46;;;;;;;;;;;19.40;99.90;;;;;;5031824;28;20601;-63
2022/11/11 13:16:32;;;;;;;;;;;19.40;99.90;;;;;;5033772;28;19921;-65
2022/11/11 13:19:27;;;;;;;;;;;19.40;99.90;;;;;;5032868;28;19920;-64
2022/11/11 13:22:18;;;;;;;;;;;19.40;99.90;;;;;;5036725;28;19929;-64
2022/11/11 13:25:05;;;;;;;;;;;19.30;99.90;;;;;;5038024;28;19924;-60
2022/11/11 13:27:59;;;;;;;;;;;19.20;99.90;;;;;;5046960;28;20491;-62
2022/11/11 13:30:48;;;;;;;;;;;19.30;99.90;;;;;;5042685;28;19929;-65
2022/11/11 13:34:00;;;;;;;;;;;19.40;99.90;;;;;;5036218;28;19929;-62
2022/11/11 13:36:50;;;;;;;;;;;19.40;99.90;;;;;;5034703;28;19921;-61
2022/11/11 13:39:39;;;;;;;;;;;19.40;99.90;;;;;;5040629;28;19921;-64
2022/11/11 13:42:26;;;;;;;;;;;19.40;99.90;;;;;;5036316;28;19928;-65
2022/11/11 13:45:31;;;;;;;;;;;19.50;99.90;;;;;;5023469;28;19928;-64
2022/11/11 13:48:19;;;;;;;;;;;19.60;99.90;;;;;;5036052;28;19921;-65
2022/11/11 13:51:23;;;;;;;;;;;19.60;99.90;;;;;;5035495;28;19929;-63
2022/11/11 13:54:20;;;;;;;;;;;19.70;99.90;;;;;;5014211;28;19937;-66
2022/11/11 13:57:15;;;;;;;;;;;19.80;99.90;;;;;;5017676;28;19935;-62
2022/11/11 14:00:03;;;;;;;;;;;19.80;99.90;;;;;;5032116;28;19925;-62
2022/11/11 14:03:09;;;;;;;;;;;19.90;99.90;;;;;;5023762;28;19924;-65
2022/11/11 14:06:13;;;;;;;;;;;19.90;99.90;;;;;;5029923;28;19925;-62
2022/11/11 14:08:59;;;;;;;;;;;19.80;99.90;;;;;;5033094;28;20164;-61
2022/11/11 14:11:44;;;;;;;;;;;19.90;99.90;;;;;;5034450;28;19925;-66
2022/11/11 14:14:30;;;;;;;;;;;19.90;99.90;;;;;;5027237;28;19921;-63
2022/11/11 14:17:16;;;;;;;;;;;19.90;99.90;;;;;;5032503;28;19921;-64
2022/11/11 14:20:21;;;;;;;;;;;19.90;99.90;;;;;;5027871;28;19925;-62
2022/11/11 14:23:25;;;;;;;;;;;19.90;99.90;;;;;;5029177;28;19941;-62
2022/11/11 14:26:20;;;;;;;;;;;20.00;99.90;;;;;;5028908;28;19921;-64
2022/11/11 14:29:15;;;;;;;;;;;20.10;99.90;;;;;;5035425;28;20028;-63
2022/11/11 14:32:00;;;;;;;;;;;20.10;99.90;;;;;;5032258;28;19921;-59
2022/11/11 14:35:11;;;;;;;;;;;20.10;99.90;;;;;;5029497;28;19921;-64
2022/11/11 14:38:04;;;;;;;;;;;20.10;99.90;;;;;;5031371;28;19921;-60
2022/11/11 14:40:50;;;;;;;;;;;20.10;99.90;;;;;;5032382;28;19925;-61
2022/11/11 14:43:36;;;;;;;;;;;20.10;99.90;;;;;;5026038;28;19929;-61
2022/11/11 14:46:22;;;;;;;;;;;20.20;99.90;;;;;;5035212;28;19932;-61
2022/11/11 14:49:08;;;;;;;;;;;20.20;99.90;;;;;;5035511;28;19929;-59
2022/11/11 14:51:55;;;;;;;;;;;20.30;99.90;;;;;;5039455;28;19925;-61
2022/11/11 14:54:47;;;;;;;;;;;20.30;99.90;;;;;;5031867;28;19928;-59
2022/11/11 14:57:37;;;;;;;;;;;20.30;99.90;;;;;;5040122;28;19921;-62
2022/11/11 15:00:28;;;;;;;;;;;20.30;99.90;;;;;;5035205;28;20538;-62
2022/11/11 15:03:34;;;;;;;;;;;20.30;99.90;;;;;;5030565;28;19925;-63
2022/11/11 15:06:23;;;;;;;;;;;20.30;99.90;;;;;;5027990;28;20468;-62
2022/11/11 15:09:27;;;;;;;;;;;20.30;99.90;;;;;;5034162;28;20467;-66
2022/11/11 15:12:28;;;;;;;;;;;19.80;99.90;;;;;;5039760;28;19924;-60
2022/11/11 15:15:23;;;;;;;;;;;18.60;99.90;;;;;;5032680;28;19940;-61
2022/11/11 15:18:27;;;;;;;;;;;18.10;99.90;;;;;;5032685;28;19968;-57
2022/11/11 15:21:19;;;;;;;;;;;18.70;99.90;;;;;;5031503;28;20731;-63
2022/11/11 15:24:19;;;;;;;;;;;19.10;99.90;;;;;;5032178;28;19929;-61
2022/11/11 15:27:14;;;;;;;;;;;19.40;99.90;;;;;;5033562;28;20644;-60
2022/11/11 15:30:13;;;;;;;;;;;19.60;99.90;;;;;;5030228;28;19925;-59
2022/11/11 15:33:02;;;;;;;;;;;19.70;99.90;;;;;;5032542;28;19964;-62
2022/11/11 15:35:56;;;;;;;;;;;19.90;99.90;;;;;;5034581;28;19929;-61
2022/11/11 15:38:42;;;;;;;;;;;19.90;99.90;;;;;;5036431;28;19921;-62
2022/11/11 15:41:31;;;;;;;;;;;20.00;99.90;;;;;;5038337;28;20444;-64
2022/11/11 15:44:27;;;;;;;;;;;20.10;99.90;;;;;;5010907;28;19929;-60
2022/11/11 15:47:15;;;;;;;;;;;20.30;99.90;;;;;;5038655;28;20365;-61
2022/11/11 15:50:00;;;;;;;;;;;20.20;99.90;;;;;;5048292;28;19921;-61
2022/11/11 15:52:52;;;;;;;;;;;20.20;99.90;;;;;;5033704;28;19928;-62
2022/11/11 15:55:39;;;;;;;;;;;20.00;99.90;;;;;;5049874;28;19925;-64
2022/11/11 15:58:29;;;;;;;;;;;19.90;99.90;;;;;;5043467;28;20296;-63
2022/11/11 16:01:15;;;;;;;;;;;19.90;99.90;;;;;;5024784;28;19928;-60
2022/11/11 16:04:00;;;;;;;;;;;19.80;99.90;;;;;;5029174;28;20317;-59
2022/11/11 16:06:46;;;;;;;;;;;19.70;99.90;;;;;;5026887;28;19925;-61
2022/11/11 16:09:32;;;;;;;;;;;19.60;99.90;;;;;;5037571;28;19925;-60
2022/11/11 16:12:21;;;;;;;;;;;19.60;99.90;;;;;;5040163;28;21634;-60
2022/11/11 16:15:07;;;;;;;;;;;19.70;99.90;;;;;;5037931;28;20262;-61
2022/11/11 16:17:54;;;;;;;;;;;19.70;99.90;;;;;;5041012;28;19924;-61
2022/11/11 16:20:49;;;;;;;;;;;19.70;99.90;;;;;;5025520;28;19921;-61
2022/11/11 16:23:36;;;;;;;;;;;19.70;99.90;;;;;;5036735;28;19929;-60
2022/11/11 16:26:23;;;;;;;;;;;19.70;99.90;;;;;;5036888;28;19921;-61
2022/11/11 16:29:13;;;;;;;;;;;19.70;99.90;;;;;;5036428;28;19924;-59
2022/11/11 16:31:58;;;;;;;;;;;19.70;99.90;;;;;;5037946;28;19925;-63
2022/11/11 16:34:45;;;;;;;;;;;19.70;99.90;;;;;;5020783;28;19925;-61
2022/11/11 16:37:48;;;;;;;;;;;19.70;99.90;;;;;;5038827;28;19928;-59
2022/11/11 16:40:35;;;;;;;;;;;19.70;99.90;;;;;;5039920;28;19920;-62
2022/11/11 16:43:25;;;;;;;;;;;19.80;99.90;;;;;;5035797;28;20385;-61
2022/11/11 16:46:13;;;;;;;;;;;19.80;99.90;;;;;;5039906;28;19921;-63
2022/11/11 16:48:59;;;;;;;;;;;19.80;99.90;;;;;;5042728;28;19940;-61
2022/11/11 16:51:45;;;;;;;;;;;19.80;99.90;;;;;;5035292;28;19920;-63
2022/11/11 16:54:33;;;;;;;;;;;19.80;99.90;;;;;;5030831;28;19921;-61
2022/11/11 16:57:24;;;;;;;;;;;19.80;99.90;;;;;;5043251;28;19921;-61
2022/11/11 17:00:14;;;;;;;;;;;19.80;99.90;;;;;;5034223;28;20388;-60
2022/11/11 17:03:15;;;;;;;;;;;19.70;99.90;;;;;;5035480;28;19921;-62
2022/11/11 17:06:07;;;;;;;;;;;19.70;99.90;;;;;;5038295;28;20301;-61
2022/11/11 17:08:53;;;;;;;;;;;19.70;99.90;;;;;;5032998;28;19925;-64
2022/11/11 17:11:38;;;;;;;;;;;19.80;99.90;;;;;;5048094;28;19925;-61
2022/11/11 17:14:25;;;;;;;;;;;19.90;99.90;;;;;;5054350;22;19924;-60
2022/11/11 17:17:11;;;;;;;;;;;20.00;99.90;;;;;;5055272;28;19925;-59
2022/11/11 17:19:59;;;;;;;;;;;20.10;99.90;;;;;;5054776;28;19921;-60
2022/11/11 17:22:51;;;;;;;;;;;20.20;99.90;;;;;;5042162;28;19925;-64
2022/11/11 17:25:37;;;;;;;;;;;20.30;99.90;;;;;;5046974;28;20350;-60
2022/11/11 17:28:22;;;;;;;;;;;20.40;99.90;;;;;;5054777;28;19921;-58
2022/11/11 17:31:09;;;;;;;;;;;20.50;99.90;;;;;;5053189;28;20019;-58
2022/11/11 17:33:55;;;;;;;;;;;20.50;99.90;;;;;;5052275;28;19924;-62
2022/11/11 17:36:41;;;;;;;;;;;20.50;99.90;;;;;;5048224;28;19936;-59
2022/11/11 17:39:26;;;;;;;;;;;20.50;99.90;;;;;;5055303;28;19920;-60
2022/11/11 17:42:13;;;;;;;;;;;20.50;99.90;;;;;;5054714;28;20343;-61
2022/11/11 17:44:59;;;;;;;;;;;20.50;99.90;;;;;;5046364;28;20381;-59
2022/11/11 17:47:45;;;;;;;;;;;20.40;99.90;;;;;;5041456;28;20380;-60
2022/11/11 17:50:31;;;;;;;;;;;20.40;99.90;;;;;;5042185;28;19925;-58
2022/11/11 17:53:17;;;;;;;;;;;20.30;99.90;;;;;;5055131;28;20384;-58